createdAt,value
2022-10-04T00:02:31.689Z,11.95
2022-10-04T00:05:03.931Z,11.93
2022-10-04T00:07:38.408Z,11.88
2022-10-04T00:10:19.735Z,11.89
2022-10-04T00:12:49.034Z,11.81
2022-10-04T00:15:25.458Z,11.86
2022-10-04T00:18:19.066Z,11.87
2022-10-04T00:20:50.400Z,11.93
2022-10-04T00:23:23.043Z,11.88
2022-10-04T00:26:00.045Z,11.87
2022-10-04T00:28:26.749Z,11.90
2022-10-04T00:31:13.287Z,11.83
2022-10-04T00:33:47.793Z,11.81
2022-10-04T00:36:26.507Z,11.79
2022-10-04T00:39:05.212Z,11.80
2022-10-04T00:41:48.358Z,11.79
2022-10-04T00:44:29.497Z,11.83
2022-10-04T00:46:57.455Z,11.72
2022-10-04T00:49:29.722Z,11.68
2022-10-04T00:52:00.928Z,11.79
2022-10-04T00:54:30.979Z,11.73
2022-10-04T00:57:07.410Z,11.73
2022-10-04T00:59:35.397Z,11.69
2022-10-04T01:02:12.248Z,11.68
2022-10-04T01:04:46.115Z,11.67
2022-10-04T01:07:14.771Z,11.70
2022-10-04T01:09:48.031Z,11.58
2022-10-04T01:12:23.865Z,11.62
2022-10-04T01:15:03.238Z,11.66
2022-10-04T01:17:29.809Z,11.63
2022-10-04T01:19:56.828Z,11.85
2022-10-04T01:22:41.846Z,11.85
2022-10-04T01:25:09.404Z,11.92
2022-10-04T01:27:43.569Z,11.77
2022-10-04T01:30:11.918Z,11.76
2022-10-04T01:32:39.455Z,11.72
2022-10-04T01:35:12.964Z,11.84
2022-10-04T01:37:39.742Z,11.69
2022-10-04T01:40:08.929Z,11.65
2022-10-04T01:42:41.035Z,11.63
2022-10-04T01:45:19.243Z,11.61
2022-10-04T01:47:52.805Z,11.67
2022-10-04T01:50:35.597Z,11.66
2022-10-04T01:53:16.210Z,11.74
2022-10-04T01:55:45.351Z,11.75
2022-10-04T01:58:19.097Z,11.69
2022-10-04T02:00:57.074Z,11.53
2022-10-04T02:03:34.049Z,11.61
2022-10-04T02:06:03.405Z,11.69
2022-10-04T02:08:33.867Z,11.60
2022-10-04T02:11:01.740Z,11.56
2022-10-04T02:13:34.450Z,11.64
2022-10-04T02:16:02.914Z,11.58
2022-10-04T02:18:31.724Z,11.63
2022-10-04T02:20:59.561Z,11.64
2022-10-04T02:23:27.002Z,11.62
2022-10-04T02:25:53.621Z,11.59
2022-10-04T02:28:20.270Z,11.62
2022-10-04T02:31:10.429Z,11.60
2022-10-04T02:33:42.240Z,11.51
2022-10-04T02:36:09.888Z,11.51
2022-10-04T02:38:42.473Z,11.47
2022-10-04T02:41:25.241Z,11.56
2022-10-04T02:44:14.649Z,11.55
2022-10-04T02:46:50.507Z,11.54
2022-10-04T02:49:32.057Z,11.56
2022-10-04T02:52:03.742Z,11.55
2022-10-04T02:54:41.049Z,11.50
2022-10-04T02:57:19.662Z,11.58
2022-10-04T02:59:46.589Z,11.50
2022-10-04T03:02:30.785Z,11.59
2022-10-04T03:05:05.933Z,11.63
2022-10-04T03:07:36.402Z,11.53
2022-10-04T03:10:12.020Z,11.50
2022-10-04T03:12:42.921Z,11.64
2022-10-04T03:15:10.699Z,11.42
2022-10-04T03:17:37.340Z,11.37
2022-10-04T03:20:06.025Z,11.27
2022-10-04T03:22:33.011Z,11.32
2022-10-04T03:24:59.654Z,11.19
2022-10-04T03:27:29.222Z,11.11
2022-10-04T03:29:59.220Z,11.06
2022-10-04T03:32:26.301Z,11.10
2022-10-04T03:35:01.617Z,11.20
2022-10-04T03:37:30.059Z,11.21
2022-10-04T03:39:57.189Z,11.13
2022-10-04T03:42:32.111Z,11.10
2022-10-04T03:45:12.373Z,11.12
2022-10-04T03:47:41.034Z,11.05
2022-10-04T03:50:13.785Z,10.96
2022-10-04T03:52:50.723Z,10.85
2022-10-04T03:55:17.678Z,10.82
2022-10-04T03:57:44.291Z,10.77
2022-10-04T04:00:15.417Z,10.73
2022-10-04T04:02:46.365Z,10.69
2022-10-04T04:05:20.357Z,10.59
2022-10-04T04:07:54.538Z,10.56
2022-10-04T04:10:27.589Z,10.55
2022-10-04T04:13:01.344Z,10.53
2022-10-04T04:15:29.968Z,10.50
2022-10-04T04:17:59.967Z,10.57
2022-10-04T04:20:37.125Z,10.43
2022-10-04T04:23:15.845Z,10.38
2022-10-04T04:25:45.982Z,10.32
2022-10-04T04:28:34.558Z,10.25
2022-10-04T04:31:08.352Z,10.25
2022-10-04T04:33:43.208Z,10.14
2022-10-04T04:36:13.268Z,10.14
2022-10-04T04:38:59.888Z,10.09
2022-10-04T04:41:28.579Z,10.05
2022-10-04T04:43:55.268Z,10.08
2022-10-04T04:46:27.483Z,10.09
2022-10-04T04:49:03.167Z,10.24
2022-10-04T04:51:31.659Z,10.16
2022-10-04T04:53:59.810Z,10.18
2022-10-04T04:56:28.118Z,10.23
2022-10-04T04:58:56.931Z,10.28
2022-10-04T05:01:29.880Z,10.28
2022-10-04T05:04:04.636Z,10.30
2022-10-04T05:06:32.948Z,10.37
2022-10-04T05:08:59.681Z,10.39
2022-10-04T05:11:31.683Z,10.41
2022-10-04T05:14:05.913Z,10.38
2022-10-04T05:16:51.486Z,10.38
2022-10-04T05:19:21.793Z,10.47
2022-10-04T05:21:50.403Z,10.35
2022-10-04T05:24:31.522Z,10.34
2022-10-04T05:27:02.912Z,10.43
2022-10-04T05:29:33.934Z,10.36
2022-10-04T05:32:24.036Z,10.35
2022-10-04T05:34:51.261Z,10.22
2022-10-04T05:37:36.533Z,10.33
2022-10-04T05:40:14.689Z,10.35
2022-10-04T05:42:45.278Z,10.35
2022-10-04T05:45:23.455Z,10.38
2022-10-04T05:47:51.826Z,10.31
2022-10-04T05:50:35.147Z,10.36
2022-10-04T05:53:24.355Z,10.40
2022-10-04T05:56:18.310Z,10.48
2022-10-04T05:58:55.584Z,10.51
2022-10-04T06:01:47.317Z,10.51
2022-10-04T06:04:40.788Z,10.61
2022-10-04T06:07:30.361Z,10.66
2022-10-04T06:10:34.740Z,10.81
2022-10-04T06:13:07.136Z,10.85
2022-10-04T06:16:07.695Z,10.92
2022-10-04T06:18:47.802Z,11.16
2022-10-04T06:21:19.480Z,11.05
2022-10-04T06:23:55.998Z,11.08
2022-10-04T06:26:27.491Z,11.14
2022-10-04T06:29:10.577Z,11.23
2022-10-04T06:31:57.069Z,11.28
2022-10-04T06:34:55.221Z,11.46
2022-10-04T06:37:32.536Z,11.47
2022-10-04T06:40:18.734Z,11.46
2022-10-04T06:43:10.321Z,11.57
2022-10-04T06:46:14.569Z,11.68
2022-10-04T06:49:02.396Z,11.78
2022-10-04T06:51:34.727Z,11.97
2022-10-04T06:54:15.591Z,12.24
2022-10-04T06:57:01.112Z,12.38
2022-10-04T06:59:48.523Z,12.64
2022-10-04T07:02:20.636Z,12.90
2022-10-04T07:05:08.029Z,13.01
2022-10-04T07:07:37.728Z,13.00
2022-10-04T07:10:25.114Z,13.20
2022-10-04T07:13:28.840Z,13.36
2022-10-04T07:16:04.739Z,13.26
2022-10-04T07:18:35.632Z,13.21
2022-10-04T07:21:07.813Z,13.42
2022-10-04T07:23:51.747Z,13.32
2022-10-04T07:26:25.433Z,13.06
2022-10-04T07:29:14.256Z,13.06
2022-10-04T07:31:41.840Z,13.00
2022-10-04T07:34:17.338Z,12.78
2022-10-04T07:36:49.006Z,12.81
2022-10-04T07:39:16.537Z,12.79
2022-10-04T07:41:50.913Z,12.85
2022-10-04T07:44:34.853Z,12.81
2022-10-04T07:47:06.623Z,12.76
2022-10-04T07:49:39.171Z,12.78
2022-10-04T07:52:20.729Z,12.91
2022-10-04T07:55:09.808Z,12.67
2022-10-04T07:57:46.394Z,12.78
2022-10-04T08:00:16.284Z,12.75
2022-10-04T08:03:06.317Z,12.76
2022-10-04T08:05:45.598Z,12.77
2022-10-04T08:08:44.237Z,12.76
2022-10-04T08:11:44.356Z,12.62
2022-10-04T08:14:30.038Z,12.72
2022-10-04T08:17:19.677Z,12.67
2022-10-04T08:20:01.082Z,12.79
2022-10-04T08:22:51.653Z,12.79
2022-10-04T08:25:32.902Z,12.87
2022-10-04T08:28:22.905Z,12.78
2022-10-04T08:31:27.878Z,12.85
2022-10-04T08:34:05.847Z,12.87
2022-10-04T08:37:01.850Z,12.86
2022-10-04T08:39:32.409Z,12.91
2022-10-04T08:42:16.670Z,12.89
2022-10-04T08:45:16.783Z,12.69
2022-10-04T08:48:19.354Z,12.80
2022-10-04T08:51:24.887Z,12.87
2022-10-04T08:54:21.769Z,13.04
2022-10-04T08:56:57.827Z,13.12
2022-10-04T08:59:39.498Z,13.25
2022-10-04T09:02:34.529Z,13.26
2022-10-04T09:05:29.918Z,13.31
2022-10-04T09:08:09.801Z,13.36
2022-10-04T09:10:56.189Z,13.48
2022-10-04T09:13:49.286Z,13.55
2022-10-04T09:16:48.810Z,13.50
2022-10-04T09:19:34.122Z,13.51
2022-10-04T09:22:17.427Z,13.54
2022-10-04T09:25:14.137Z,13.72
2022-10-04T09:28:08.629Z,13.85
2022-10-04T09:30:58.253Z,14.02
2022-10-04T09:33:32.740Z,14.07
2022-10-04T09:36:16.281Z,13.89
2022-10-04T09:39:28.274Z,14.09
2022-10-04T09:42:24.073Z,14.22
2022-10-04T09:45:09.795Z,14.37
2022-10-04T09:47:42.728Z,14.24
2022-10-04T09:50:37.390Z,14.35
2022-10-04T09:53:37.706Z,14.60
2022-10-04T09:56:30.729Z,14.57
2022-10-04T09:59:38.698Z,14.66
2022-10-04T10:02:28.925Z,14.72
2022-10-04T10:05:23.120Z,14.81
2022-10-04T10:07:54.500Z,14.95
2022-10-04T10:10:48.298Z,15.13
2022-10-04T10:13:43.102Z,15.23
2022-10-04T10:16:12.832Z,15.25
2022-10-04T10:19:04.691Z,15.21
2022-10-04T10:21:45.307Z,15.36
2022-10-04T10:24:37.666Z,15.42
2022-10-04T10:27:25.019Z,15.65
2022-10-04T10:29:59.384Z,15.72
2022-10-04T10:32:44.941Z,15.77
2022-10-04T10:35:28.651Z,15.62
2022-10-04T10:38:51.051Z,15.53
2022-10-04T10:41:53.184Z,15.57
2022-10-04T10:44:34.651Z,15.69
2022-10-04T10:47:11.833Z,15.78
2022-10-04T10:50:06.923Z,15.81
2022-10-04T10:53:00.086Z,16.03
2022-10-04T10:56:02.405Z,16.23
2022-10-04T10:58:57.259Z,16.43
2022-10-04T11:02:04.855Z,16.43
2022-10-04T11:04:43.845Z,16.44
2022-10-04T11:07:41.585Z,16.54
2022-10-04T11:10:50.017Z,16.51
2022-10-04T11:13:18.753Z,16.43
2022-10-04T11:16:23.185Z,16.36
2022-10-04T11:19:29.308Z,16.26
2022-10-04T11:22:17.852Z,16.13
2022-10-04T11:25:05.353Z,16.19
2022-10-04T11:27:49.844Z,16.13
2022-10-04T11:30:25.178Z,16.11
2022-10-04T11:33:11.925Z,16.00
2022-10-04T11:35:45.998Z,16.08
2022-10-04T11:38:31.306Z,16.10
2022-10-04T11:41:16.689Z,16.37
2022-10-04T11:44:18.418Z,16.35
2022-10-04T11:46:52.949Z,16.36
2022-10-04T11:49:37.897Z,16.26
2022-10-04T11:52:44.358Z,16.24
2022-10-04T11:55:32.222Z,16.47
2022-10-04T11:58:15.386Z,16.79
2022-10-04T12:00:53.641Z,16.93
2022-10-04T12:03:33.053Z,16.86
2022-10-04T12:06:19.271Z,16.91
2022-10-04T12:09:05.006Z,16.82
2022-10-04T12:12:10.046Z,16.78
2022-10-04T12:14:47.150Z,16.74
2022-10-04T12:17:52.600Z,16.69
2022-10-04T12:20:27.373Z,16.55
2022-10-04T12:23:13.810Z,16.65
2022-10-04T12:26:19.145Z,16.62
2022-10-04T12:29:11.680Z,16.58
2022-10-04T12:31:49.508Z,16.49
2022-10-04T12:34:28.550Z,16.61
2022-10-04T12:37:20.444Z,16.48
2022-10-04T12:40:13.064Z,16.35
2022-10-04T12:43:06.967Z,16.43
2022-10-04T12:46:08.770Z,16.47
2022-10-04T12:48:48.967Z,16.44
2022-10-04T12:51:35.068Z,16.37
2022-10-04T12:54:14.565Z,16.22
2022-10-04T12:56:47.690Z,16.13
2022-10-04T12:59:30.959Z,16.03
2022-10-04T13:02:21.900Z,16.13
2022-10-04T13:04:53.242Z,16.01
2022-10-04T13:07:35.095Z,15.96
2022-10-04T13:10:26.120Z,16.00
2022-10-04T13:13:19.317Z,16.00
2022-10-04T13:19:13.724Z,16.09
2022-10-04T13:21:55.564Z,16.12
2022-10-04T13:24:56.280Z,16.11
2022-10-04T13:27:40.244Z,16.30
2022-10-04T13:30:17.220Z,16.26
2022-10-04T13:32:56.908Z,16.26
2022-10-04T13:35:55.738Z,16.17
2022-10-04T13:38:40.813Z,16.23
2022-10-04T13:41:14.968Z,16.21
2022-10-04T13:43:47.522Z,16.22
2022-10-04T13:46:39.390Z,16.21
2022-10-04T13:49:48.208Z,16.13
2022-10-04T13:52:45.700Z,16.15
2022-10-04T13:55:39.237Z,16.06
2022-10-04T13:58:30.849Z,15.95
2022-10-04T14:01:25.879Z,16.16
2022-10-04T14:04:33.901Z,16.05
2022-10-04T14:07:03.398Z,16.08
2022-10-04T14:09:46.122Z,15.94
2022-10-04T14:12:32.238Z,16.01
2022-10-04T14:15:31.833Z,16.13
2022-10-04T14:18:27.508Z,16.17
2022-10-04T14:21:18.220Z,16.09
2022-10-04T14:24:17.113Z,16.01
2022-10-04T14:27:02.393Z,15.91
2022-10-04T14:29:29.215Z,16.12
2022-10-04T14:32:22.578Z,16.15
2022-10-04T14:35:27.737Z,16.35
2022-10-04T14:38:26.598Z,16.38
2022-10-04T14:41:24.430Z,16.18
2022-10-04T14:43:54.243Z,16.14
2022-10-04T14:46:51.516Z,16.04
2022-10-04T14:49:22.590Z,15.86
2022-10-04T14:52:06.491Z,15.80
2022-10-04T14:54:53.144Z,15.84
2022-10-04T14:57:55.311Z,15.69
2022-10-04T15:00:23.798Z,15.60
2022-10-04T15:03:28.876Z,15.65
2022-10-04T15:06:01.055Z,15.75
2022-10-04T15:08:51.650Z,15.73
2022-10-04T15:11:31.927Z,15.85
2022-10-04T15:14:03.040Z,15.76
2022-10-04T15:16:52.880Z,15.81
2022-10-04T15:19:19.538Z,15.81
2022-10-04T15:21:53.103Z,15.61
2022-10-04T15:24:20.397Z,15.62
2022-10-04T15:27:11.033Z,15.61
2022-10-04T15:30:04.122Z,15.38
2022-10-04T15:32:36.517Z,15.30
2022-10-04T15:35:31.523Z,15.35
2022-10-04T15:38:15.398Z,15.18
2022-10-04T15:41:21.849Z,15.10
2022-10-04T15:44:17.072Z,15.06
2022-10-04T15:47:09.100Z,14.92
2022-10-04T15:50:00.630Z,14.84
2022-10-04T15:53:06.444Z,14.65
2022-10-04T15:55:36.248Z,14.65
2022-10-04T15:58:40.694Z,14.38
2022-10-04T16:01:39.264Z,14.20
2022-10-04T16:04:15.398Z,14.11
2022-10-04T16:07:00.098Z,14.17
2022-10-04T16:10:14.507Z,13.97
2022-10-04T16:12:47.314Z,13.88
2022-10-04T16:15:32.229Z,13.72
2022-10-04T16:18:30.733Z,13.55
2022-10-04T16:21:15.313Z,13.37
2022-10-04T16:23:43.851Z,13.17
2022-10-04T16:26:34.080Z,13.09
2022-10-04T16:29:29.360Z,12.99
2022-10-04T16:32:12.759Z,12.92
2022-10-04T16:34:59.459Z,12.87
2022-10-04T16:37:57.796Z,12.75
2022-10-04T16:40:30.450Z,12.64
2022-10-04T16:43:06.084Z,12.71
2022-10-04T16:45:41.501Z,12.66
2022-10-04T16:48:39.322Z,12.55
2022-10-04T16:51:13.648Z,12.31
2022-10-04T16:54:04.854Z,12.25
2022-10-04T16:57:11.433Z,12.11
2022-10-04T16:59:44.044Z,12.08
2022-10-04T17:02:49.252Z,12.00
2022-10-04T17:05:49.212Z,11.86
2022-10-04T17:08:15.760Z,11.70
2022-10-04T17:10:48.357Z,11.75
2022-10-04T17:13:27.501Z,11.56
2022-10-04T17:16:03.102Z,11.51
2022-10-04T17:18:55.323Z,11.43
2022-10-04T17:21:36.563Z,11.50
2022-10-04T17:24:40.824Z,11.31
2022-10-04T17:27:22.554Z,11.21
2022-10-04T17:30:12.565Z,11.18
2022-10-04T17:33:18.475Z,11.11
2022-10-04T17:36:32.925Z,10.98
2022-10-04T17:39:21.014Z,10.90
2022-10-04T17:42:01.978Z,10.89
2022-10-04T17:44:41.704Z,10.96
2022-10-04T17:48:01.453Z,10.84
2022-10-04T17:51:03.057Z,10.64
2022-10-04T17:53:52.497Z,10.56
2022-10-04T17:56:47.272Z,10.48
2022-10-04T17:59:20.774Z,10.45
2022-10-04T18:02:01.467Z,10.49
2022-10-04T18:04:31.101Z,10.51
2022-10-04T18:07:03.683Z,10.43
2022-10-04T18:10:11.198Z,10.34
2022-10-04T18:12:47.258Z,10.29
2022-10-04T18:15:32.414Z,10.28
2022-10-04T18:18:18.971Z,10.28
2022-10-04T18:20:54.622Z,10.17
2022-10-04T18:23:29.333Z,10.05
2022-10-04T18:26:11.920Z,10.01
2022-10-04T18:28:38.955Z,9.98
2022-10-04T18:31:29.316Z,9.96
2022-10-04T18:33:58.879Z,9.96
2022-10-04T18:36:33.454Z,9.94
2022-10-04T18:39:00.985Z,9.92
2022-10-04T18:41:47.764Z,9.91
2022-10-04T18:44:16.232Z,9.92
2022-10-04T18:46:46.631Z,9.90
2022-10-04T18:49:21.203Z,9.84
2022-10-04T18:52:07.292Z,9.78
2022-10-04T18:54:57.010Z,9.69
2022-10-04T18:57:55.814Z,9.64
2022-10-04T19:00:41.653Z,9.61
2022-10-04T19:03:20.717Z,9.61
2022-10-04T19:06:01.387Z,9.58
2022-10-04T19:08:54.932Z,9.61
2022-10-04T19:11:31.684Z,9.56
2022-10-04T19:14:21.225Z,9.55
2022-10-04T19:16:59.270Z,9.51
2022-10-04T19:19:45.526Z,9.50
2022-10-04T19:22:34.360Z,9.47
2022-10-04T19:25:34.879Z,9.40
2022-10-04T19:28:13.306Z,9.40
2022-10-04T19:31:13.472Z,9.37
2022-10-04T19:33:52.676Z,9.36
2022-10-04T19:36:25.887Z,9.33
2022-10-04T19:39:14.380Z,9.34
2022-10-04T19:42:00.137Z,9.32
2022-10-04T19:44:52.115Z,9.39
2022-10-04T19:47:42.678Z,9.31
2022-10-04T19:50:10.265Z,9.28
2022-10-04T19:52:49.101Z,9.27
2022-10-04T19:55:21.196Z,9.22
2022-10-04T19:58:37.361Z,9.27
2022-10-04T20:01:14.708Z,9.25
2022-10-04T20:03:42.045Z,9.19
2022-10-04T20:06:09.905Z,9.20
2022-10-04T20:09:02.305Z,9.21
2022-10-04T20:11:48.700Z,9.19
2022-10-04T20:14:15.492Z,9.16
2022-10-04T20:16:49.255Z,9.16
2022-10-04T20:19:28.853Z,9.09
2022-10-04T20:21:57.118Z,9.09
2022-10-04T20:24:35.787Z,9.07
2022-10-04T20:27:09.205Z,9.03
2022-10-04T20:29:38.929Z,8.99
2022-10-04T20:32:37.662Z,8.98
2022-10-04T20:35:09.398Z,8.98
2022-10-04T20:37:45.193Z,9.00
2022-10-04T20:40:34.568Z,8.99
2022-10-04T20:43:13.505Z,8.97
2022-10-04T20:45:51.531Z,9.00
2022-10-04T20:48:25.803Z,8.95
2022-10-04T20:50:52.784Z,8.89
2022-10-04T20:53:21.771Z,8.88
2022-10-04T20:55:49.036Z,8.89
2022-10-04T20:58:32.994Z,8.88
2022-10-04T21:01:24.295Z,8.91
2022-10-04T21:03:51.004Z,8.89
2022-10-04T21:06:17.581Z,8.88
2022-10-04T21:08:44.173Z,8.90
2022-10-04T21:11:21.167Z,8.92
2022-10-04T21:13:59.466Z,8.89
2022-10-04T21:16:47.003Z,8.95
2022-10-04T21:19:32.344Z,8.92
2022-10-04T21:22:07.040Z,8.94
2022-10-04T21:24:36.697Z,9.01
2022-10-04T21:27:08.703Z,8.98
2022-10-04T21:29:35.423Z,9.06
2022-10-04T21:32:02.161Z,9.07
2022-10-04T21:34:51.836Z,9.05
2022-10-04T21:37:16.202Z,9.06
2022-10-04T21:39:45.536Z,9.10
2022-10-04T21:42:15.347Z,9.17
2022-10-04T21:44:42.371Z,9.33
2022-10-04T21:47:09.348Z,9.25
2022-10-04T21:49:36.241Z,9.25
2022-10-04T21:52:02.958Z,9.30
2022-10-04T21:54:29.607Z,9.36
2022-10-04T21:56:56.349Z,9.36
2022-10-04T21:59:23.050Z,9.41
2022-10-04T22:01:50.806Z,9.41
2022-10-04T22:04:17.464Z,9.47
2022-10-04T22:06:44.307Z,9.48
2022-10-04T22:09:11.273Z,9.46
2022-10-04T22:11:38.529Z,9.39
2022-10-04T22:14:05.251Z,9.34
2022-10-04T22:16:31.917Z,9.34
2022-10-04T22:18:58.629Z,9.34
2022-10-04T22:21:25.523Z,9.31
2022-10-04T22:23:52.371Z,9.37
2022-10-04T22:26:21.446Z,9.26
2022-10-04T22:28:53.830Z,9.23
2022-10-04T22:31:30.812Z,9.20
2022-10-04T22:33:57.921Z,9.21
2022-10-04T22:36:37.780Z,9.19
2022-10-04T22:39:10.664Z,9.23
2022-10-04T22:42:01.161Z,9.24
2022-10-04T22:44:30.311Z,9.19
2022-10-04T22:47:01.620Z,9.11
2022-10-04T22:49:36.058Z,9.14
2022-10-04T22:52:10.356Z,9.08
2022-10-04T22:54:36.879Z,9.02
2022-10-04T22:57:05.523Z,8.95
2022-10-04T22:59:43.357Z,8.91
2022-10-04T23:02:13.510Z,8.85
2022-10-04T23:04:41.433Z,8.85
2022-10-04T23:07:08.133Z,8.79
2022-10-04T23:09:34.938Z,8.80
2022-10-04T23:12:02.125Z,8.76
2022-10-04T23:14:28.751Z,8.79
2022-10-04T23:16:55.317Z,8.78
2022-10-04T23:19:21.978Z,8.71
2022-10-04T23:21:49.971Z,8.69
2022-10-04T23:24:21.642Z,8.67
2022-10-04T23:26:57.358Z,8.67
2022-10-04T23:29:30.691Z,8.64
2022-10-04T23:31:57.608Z,8.63
2022-10-04T23:34:30.024Z,8.59
2022-10-04T23:36:57.080Z,8.57
2022-10-04T23:39:26.058Z,8.55
2022-10-04T23:41:54.934Z,8.53
2022-10-04T23:44:24.120Z,8.53
2022-10-04T23:46:51.174Z,8.48
2022-10-04T23:49:18.923Z,8.49
2022-10-04T23:51:46.149Z,8.49
2022-10-04T23:54:17.245Z,8.42
2022-10-04T23:56:45.002Z,8.44
2022-10-04T23:59:19.843Z,8.37
